Time;durP1;ratioP1;P1;durP2;ratioP2;P2;SDS_P1;SDS_P2;PMS_P1;PMS_P2;Temp;Humidity;BMP_temperature;BMP_pressure;BME280_temperature;BME280_humidity;BME280_pressure;Samples;Min_cycle;Max_cycle;Signal;HPM_P1;HPM_P2
2021/09/16 00:01:05;;;;;;;5.20;3.33;;;;;;;;;;4991871;28;20398;-67
2021/09/16 00:03:34;;;;;;;6.85;3.47;;;;;;;;;;4991428;28;20069;-65
2021/09/16 00:06:02;;;;;;;5.40;3.20;;;;;;;;;;4992877;28;20108;-66
2021/09/16 00:08:32;;;;;;;7.32;3.20;;;;;;;;;;4992830;28;20137;-65
2021/09/16 00:11:00;;;;;;;5.70;2.88;;;;;;;;;;4992325;28;20066;-66
2021/09/16 00:13:28;;;;;;;5.80;3.30;;;;;;;;;;4991841;28;20050;-66
2021/09/16 00:15:57;;;;;;;4.78;2.80;;;;;;;;;;4992603;28;20058;-65
2021/09/16 00:18:25;;;;;;;3.50;2.60;;;;;;;;;;4992819;28;20552;-66
2021/09/16 00:20:53;;;;;;;5.07;2.80;;;;;;;;;;4992821;28;20133;-67
2021/09/16 00:23:22;;;;;;;4.20;2.35;;;;;;;;;;4992056;28;20052;-66
2021/09/16 00:25:51;;;;;;;7.53;2.33;;;;;;;;;;4992512;28;20109;-66
2021/09/16 00:28:20;;;;;;;3.22;2.08;;;;;;;;;;4991830;28;20042;-66
2021/09/16 00:30:48;;;;;;;3.92;2.55;;;;;;;;;;4992250;28;20576;-68
2021/09/16 00:33:16;;;;;;;3.85;2.42;;;;;;;;;;4991542;28;20062;-66
2021/09/16 00:35:45;;;;;;;4.00;2.35;;;;;;;;;;4992674;28;20514;-67
2021/09/16 00:38:13;;;;;;;3.67;2.30;;;;;;;;;;4991874;28;20121;-67
2021/09/16 00:40:41;;;;;;;3.50;2.38;;;;;;;;;;4990956;28;20502;-66
2021/09/16 00:43:11;;;;;;;5.25;2.17;;;;;;;;;;4990018;28;20133;-66
2021/09/16 00:45:39;;;;;;;2.70;2.05;;;;;;;;;;4990374;28;20069;-66
2021/09/16 00:48:08;;;;;;;4.63;2.40;;;;;;;;;;4992018;28;20058;-66
2021/09/16 00:50:37;;;;;;;6.47;2.47;;;;;;;;;;4992049;28;20054;-66
2021/09/16 00:53:05;;;;;;;3.42;2.15;;;;;;;;;;4991440;28;20050;-66
2021/09/16 00:55:34;;;;;;;4.18;2.40;;;;;;;;;;4991694;28;20470;-67
2021/09/16 00:58:04;;;;;;;3.55;2.22;;;;;;;;;;4991478;28;20054;-66
2021/09/16 01:00:35;;;;;;;5.13;2.00;;;;;;;;;;4975294;28;20472;-66
2021/09/16 01:03:04;;;;;;;3.88;1.90;;;;;;;;;;5006381;23;20070;-71
2021/09/16 01:05:32;;;;;;;3.17;2.00;;;;;;;;;;4981269;28;20531;-69
2021/09/16 01:08:01;;;;;;;3.42;2.28;;;;;;;;;;4985278;28;20133;-69
2021/09/16 01:10:29;;;;;;;4.57;2.30;;;;;;;;;;4986498;28;20070;-68
2021/09/16 01:12:58;;;;;;;3.33;2.20;;;;;;;;;;4984859;28;20050;-68
2021/09/16 01:15:26;;;;;;;2.40;2.03;;;;;;;;;;4981028;28;20152;-67
2021/09/16 01:17:56;;;;;;;7.88;1.70;;;;;;;;;;4976118;28;20047;-69
2021/09/16 01:20:25;;;;;;;4.30;2.00;;;;;;;;;;4990871;28;20046;-68
2021/09/16 01:22:55;;;;;;;3.80;2.08;;;;;;;;;;4977349;28;20582;-69
2021/09/16 01:25:24;;;;;;;2.38;1.73;;;;;;;;;;4977524;28;20459;-68
2021/09/16 01:27:53;;;;;;;3.65;2.15;;;;;;;;;;4979450;28;20494;-67
2021/09/16 01:30:21;;;;;;;3.85;1.83;;;;;;;;;;4983742;28;20043;-67
2021/09/16 01:32:50;;;;;;;3.95;1.83;;;;;;;;;;4988696;28;20137;-68
2021/09/16 01:35:18;;;;;;;1.98;1.73;;;;;;;;;;4988593;28;20054;-71
2021/09/16 01:37:47;;;;;;;3.05;1.60;;;;;;;;;;4984471;28;20150;-68
2021/09/16 01:40:16;;;;;;;5.28;1.77;;;;;;;;;;4983256;28;20042;-68
2021/09/16 01:42:45;;;;;;;2.83;1.92;;;;;;;;;;4976728;28;20141;-68
2021/09/16 01:45:15;;;;;;;3.55;2.25;;;;;;;;;;4988818;28;20065;-68
2021/09/16 01:47:43;;;;;;;3.08;1.92;;;;;;;;;;4982414;28;20101;-68
2021/09/16 01:50:12;;;;;;;5.20;2.10;;;;;;;;;;4992211;28;20467;-70
2021/09/16 01:52:41;;;;;;;4.90;2.25;;;;;;;;;;4980979;28;20046;-69
2021/09/16 01:55:10;;;;;;;3.72;1.80;;;;;;;;;;4986967;28;20519;-68
2021/09/16 01:57:40;;;;;;;5.70;2.08;;;;;;;;;;4979284;28;20129;-69
2021/09/16 02:00:09;;;;;;;2.47;1.52;;;;;;;;;;4981237;28;20422;-70
2021/09/16 02:02:38;;;;;;;4.95;1.65;;;;;;;;;;4979369;28;20141;-69
2021/09/16 02:05:06;;;;;;;3.92;2.20;;;;;;;;;;4977195;28;20558;-69
2021/09/16 02:07:35;;;;;;;3.97;1.80;;;;;;;;;;4980153;28;20054;-69
2021/09/16 02:10:04;;;;;;;2.95;1.63;;;;;;;;;;4989962;28;20050;-69
2021/09/16 02:12:33;;;;;;;2.80;2.00;;;;;;;;;;4988573;28;20046;-70
2021/09/16 02:15:02;;;;;;;3.00;1.83;;;;;;;;;;4987602;28;20125;-71
2021/09/16 02:17:31;;;;;;;2.75;2.20;;;;;;;;;;4977958;28;20045;-70
2021/09/16 02:20:00;;;;;;;5.18;1.63;;;;;;;;;;4990555;28;20047;-69
2021/09/16 02:22:28;;;;;;;3.38;1.85;;;;;;;;;;4990996;28;20589;-69
2021/09/16 02:24:56;;;;;;;3.17;1.70;;;;;;;;;;4992472;28;20145;-70
2021/09/16 02:27:24;;;;;;;2.40;1.70;;;;;;;;;;4991772;28;20129;-69
2021/09/16 02:29:53;;;;;;;4.40;1.70;;;;;;;;;;4988698;28;20475;-69
2021/09/16 02:32:22;;;;;;;3.55;1.90;;;;;;;;;;4977204;28;20061;-69
2021/09/16 02:34:50;;;;;;;3.83;1.90;;;;;;;;;;4982123;28;20470;-69
2021/09/16 02:37:20;;;;;;;6.70;1.90;;;;;;;;;;4990466;28;20062;-71
2021/09/16 02:39:48;;;;;;;2.25;1.73;;;;;;;;;;4989830;28;20527;-70
2021/09/16 02:42:16;;;;;;;3.08;1.40;;;;;;;;;;4982056;28;20058;-70
2021/09/16 02:44:44;;;;;;;5.70;1.60;;;;;;;;;;4992997;28;20114;-70
2021/09/16 02:47:13;;;;;;;4.65;1.50;;;;;;;;;;4992668;28;20116;-71
2021/09/16 02:49:43;;;;;;;2.80;1.48;;;;;;;;;;4981160;28;20121;-72
2021/09/16 02:52:11;;;;;;;3.20;1.70;;;;;;;;;;4994023;28;20046;-70
2021/09/16 02:54:40;;;;;;;3.08;1.75;;;;;;;;;;4992672;28;20498;-70
2021/09/16 02:57:08;;;;;;;3.78;1.38;;;;;;;;;;4994096;28;20453;-70
2021/09/16 02:59:36;;;;;;;2.88;1.70;;;;;;;;;;4990107;28;20082;-69
2021/09/16 03:02:05;;;;;;;2.42;1.33;;;;;;;;;;4992073;28;20836;-69
2021/09/16 03:04:33;;;;;;;3.72;1.70;;;;;;;;;;4986463;28;20043;-69
2021/09/16 03:07:03;;;;;;;2.58;1.60;;;;;;;;;;4994250;28;20578;-69
2021/09/16 03:09:31;;;;;;;3.72;1.80;;;;;;;;;;4989520;28;20510;-69
2021/09/16 03:11:59;;;;;;;3.42;2.00;;;;;;;;;;4987674;28;20056;-71
2021/09/16 03:14:27;;;;;;;2.92;1.50;;;;;;;;;;4983291;28;20130;-69
2021/09/16 03:16:56;;;;;;;2.60;1.67;;;;;;;;;;4979416;28;20054;-72
2021/09/16 03:19:24;;;;;;;5.88;1.73;;;;;;;;;;4988765;28;20085;-69
2021/09/16 03:21:52;;;;;;;5.28;2.00;;;;;;;;;;4982961;28;20133;-69
2021/09/16 03:24:22;;;;;;;2.13;1.52;;;;;;;;;;4988578;28;20125;-69
2021/09/16 03:27:06;;;;;;;2.85;1.25;;;;;;;;;;1137381;28;10022800;-70
2021/09/16 03:29:34;;;;;;;2.78;1.60;;;;;;;;;;4627870;28;10001483;-70
2021/09/16 03:32:02;;;;;;;2.83;1.63;;;;;;;;;;4973480;28;20150;-73
2021/09/16 03:34:30;;;;;;;5.35;1.73;;;;;;;;;;4972207;28;20115;-70
2021/09/16 03:36:58;;;;;;;6.13;1.80;;;;;;;;;;4973570;28;20051;-70
2021/09/16 03:39:28;;;;;;;2.22;1.50;;;;;;;;;;4974487;28;20049;-69
2021/09/16 03:41:56;;;;;;;3.38;1.90;;;;;;;;;;4973508;28;20491;-69
2021/09/16 03:44:25;;;;;;;3.80;1.60;;;;;;;;;;4973173;28;20054;-69
2021/09/16 03:46:53;;;;;;;3.13;1.70;;;;;;;;;;4973389;28;20217;-69
2021/09/16 03:49:22;;;;;;;2.30;1.42;;;;;;;;;;4972765;28;20078;-69
2021/09/16 03:51:50;;;;;;;2.40;1.33;;;;;;;;;;4972816;28;20538;-72
2021/09/16 03:54:18;;;;;;;3.13;1.52;;;;;;;;;;4972992;28;20089;-71
2021/09/16 03:56:48;;;;;;;5.80;2.00;;;;;;;;;;4972978;28;20050;-69
2021/09/16 03:59:16;;;;;;;3.05;1.40;;;;;;;;;;4972891;28;20050;-69
2021/09/16 04:01:44;;;;;;;2.72;1.40;;;;;;;;;;4972785;28;20049;-71
2021/09/16 04:04:13;;;;;;;2.05;1.42;;;;;;;;;;4972238;28;20081;-69
2021/09/16 04:06:41;;;;;;;4.35;1.75;;;;;;;;;;4973381;28;20085;-69
2021/09/16 04:09:09;;;;;;;4.80;1.80;;;;;;;;;;4970537;28;20119;-69
2021/09/16 04:11:39;;;;;;;2.15;1.60;;;;;;;;;;4971590;28;20062;-70
2021/09/16 04:14:09;;;;;;;3.53;1.42;;;;;;;;;;4972277;28;20130;-69
2021/09/16 04:16:37;;;;;;;2.00;1.33;;;;;;;;;;4973040;28;20087;-71
2021/09/16 04:19:05;;;;;;;2.75;1.52;;;;;;;;;;4964509;28;20319;-70
2021/09/16 04:21:34;;;;;;;3.75;1.27;;;;;;;;;;4968958;28;20137;-70
2021/09/16 04:24:03;;;;;;;4.15;1.58;;;;;;;;;;4966423;28;20466;-70
2021/09/16 04:26:31;;;;;;;7.40;1.55;;;;;;;;;;4967099;28;20097;-70
2021/09/16 04:29:01;;;;;;;3.80;1.88;;;;;;;;;;4967272;28;20138;-70
2021/09/16 04:31:31;;;;;;;1.85;1.27;;;;;;;;;;4963805;28;20117;-69
2021/09/16 04:33:59;;;;;;;4.93;1.30;;;;;;;;;;4970198;28;20133;-69
2021/09/16 04:36:28;;;;;;;2.72;1.50;;;;;;;;;;4972075;28;20501;-69
2021/09/16 04:38:56;;;;;;;2.67;1.88;;;;;;;;;;4973110;28;20082;-69
2021/09/16 04:41:25;;;;;;;3.38;1.65;;;;;;;;;;4972340;28;20043;-68
2021/09/16 04:43:53;;;;;;;3.70;1.60;;;;;;;;;;4971860;28;20062;-68
2021/09/16 04:46:21;;;;;;;1.80;1.30;;;;;;;;;;4971411;28;20555;-68
2021/09/16 04:48:51;;;;;;;3.30;1.60;;;;;;;;;;4972986;28;20042;-68
2021/09/16 04:51:19;;;;;;;2.28;1.67;;;;;;;;;;4971895;28;20047;-68
2021/09/16 04:53:48;;;;;;;3.47;1.70;;;;;;;;;;4970995;28;20055;-68
2021/09/16 04:56:16;;;;;;;3.75;1.83;;;;;;;;;;4972175;28;20071;-68
2021/09/16 04:58:48;;;;;;;2.40;1.60;;;;;;;;;;4973289;28;20046;-71
2021/09/16 05:01:16;;;;;;;3.08;1.55;;;;;;;;;;4973222;28;20272;-69
2021/09/16 05:03:44;;;;;;;3.13;1.60;;;;;;;;;;4971407;28;20144;-68
2021/09/16 05:06:14;;;;;;;4.53;2.17;;;;;;;;;;4972710;28;20097;-67
2021/09/16 05:08:43;;;;;;;3.58;1.63;;;;;;;;;;4971264;28;20101;-68
2021/09/16 05:11:13;;;;;;;8.02;1.80;;;;;;;;;;4972127;28;20078;-70
2021/09/16 05:13:41;;;;;;;2.08;1.58;;;;;;;;;;4971837;28;20073;-69
2021/09/16 05:16:09;;;;;;;3.70;1.73;;;;;;;;;;4970488;28;20525;-69
2021/09/16 05:18:38;;;;;;;2.53;1.42;;;;;;;;;;4968049;28;20504;-69
2021/09/16 05:21:06;;;;;;;2.10;1.35;;;;;;;;;;4968264;28;20051;-69
2021/09/16 05:23:36;;;;;;;2.83;1.70;;;;;;;;;;4958214;28;20058;-69
2021/09/16 05:26:04;;;;;;;3.00;1.85;;;;;;;;;;4966455;28;20120;-70
2021/09/16 05:28:32;;;;;;;2.95;1.70;;;;;;;;;;4968813;28;20050;-71
2021/09/16 05:31:01;;;;;;;3.30;1.80;;;;;;;;;;4968787;28;20437;-69
2021/09/16 05:33:29;;;;;;;3.22;1.60;;;;;;;;;;4968597;28;20074;-70
2021/09/16 05:35:57;;;;;;;4.47;1.90;;;;;;;;;;4968851;28;20440;-69
2021/09/16 05:38:25;;;;;;;4.35;1.73;;;;;;;;;;4969425;28;20507;-69
2021/09/16 05:40:55;;;;;;;4.47;1.98;;;;;;;;;;4968302;28;20046;-69
2021/09/16 05:43:23;;;;;;;3.78;2.10;;;;;;;;;;4960837;28;20058;-70
2021/09/16 05:45:52;;;;;;;5.38;1.73;;;;;;;;;;4981462;28;20509;-70
2021/09/16 05:48:20;;;;;;;2.92;1.73;;;;;;;;;;4987482;28;20046;-69
2021/09/16 05:50:49;;;;;;;4.30;2.00;;;;;;;;;;4985394;28;20465;-71
2021/09/16 05:53:18;;;;;;;6.43;1.95;;;;;;;;;;4986295;28;20505;-71
2021/09/16 05:55:46;;;;;;;3.00;1.92;;;;;;;;;;4984014;28;20445;-72
2021/09/16 05:58:17;;;;;;;4.53;2.17;;;;;;;;;;4978978;28;20450;-68
2021/09/16 06:00:45;;;;;;;2.92;1.88;;;;;;;;;;4978725;28;20605;-71
2021/09/16 06:03:14;;;;;;;4.28;1.80;;;;;;;;;;4976885;28;20523;-68
2021/09/16 06:05:42;;;;;;;3.08;1.88;;;;;;;;;;4974001;28;20133;-68
2021/09/16 06:08:10;;;;;;;4.20;1.92;;;;;;;;;;4974349;28;20393;-69
2021/09/16 06:10:39;;;;;;;3.88;2.10;;;;;;;;;;4971732;28;20730;-69
2021/09/16 06:13:07;;;;;;;5.00;1.70;;;;;;;;;;4980007;28;20288;-68
2021/09/16 06:15:37;;;;;;;3.78;2.10;;;;;;;;;;4970933;28;20051;-70
2021/09/16 06:18:05;;;;;;;4.07;1.55;;;;;;;;;;4964955;28;20055;-73
2021/09/16 06:20:33;;;;;;;4.82;2.10;;;;;;;;;;4976391;28;20490;-71
2021/09/16 06:23:02;;;;;;;4.32;2.42;;;;;;;;;;4984676;28;20510;-68
2021/09/16 06:25:30;;;;;;;4.60;2.42;;;;;;;;;;4975693;28;20050;-69
2021/09/16 06:27:59;;;;;;;4.50;2.25;;;;;;;;;;4986904;28;20498;-67
2021/09/16 06:30:27;;;;;;;4.60;2.85;;;;;;;;;;4972257;28;20176;-68
2021/09/16 06:32:57;;;;;;;4.47;2.25;;;;;;;;;;4973743;28;20051;-67
2021/09/16 06:35:25;;;;;;;3.75;2.33;;;;;;;;;;4987206;28;20054;-68
2021/09/16 06:37:54;;;;;;;7.35;2.53;;;;;;;;;;4980124;28;20086;-68
2021/09/16 06:40:22;;;;;;;4.65;2.38;;;;;;;;;;4970185;28;20398;-68
2021/09/16 06:42:51;;;;;;;5.65;2.30;;;;;;;;;;4982622;28;20599;-68
2021/09/16 06:45:19;;;;;;;4.25;2.22;;;;;;;;;;4987403;28;20133;-71
2021/09/16 06:47:47;;;;;;;8.75;2.40;;;;;;;;;;4972805;28;20076;-70
2021/09/16 06:50:17;;;;;;;4.15;2.17;;;;;;;;;;4989321;28;20050;-69
2021/09/16 06:52:46;;;;;;;8.48;2.50;;;;;;;;;;4973982;28;20844;-68
2021/09/16 06:55:14;;;;;;;6.13;2.50;;;;;;;;;;4988899;28;20475;-67
2021/09/16 06:57:43;;;;;;;7.20;2.33;;;;;;;;;;4988713;28;20494;-67
2021/09/16 07:00:11;;;;;;;4.95;2.70;;;;;;;;;;4988793;28;20061;-68
2021/09/16 07:02:40;;;;;;;7.07;2.40;;;;;;;;;;4979772;28;20088;-67
2021/09/16 07:05:09;;;;;;;10.55;3.20;;;;;;;;;;4968941;28;20129;-67
2021/09/16 07:07:39;;;;;;;5.70;2.40;;;;;;;;;;4980594;28;20134;-68
2021/09/16 07:10:09;;;;;;;4.60;2.47;;;;;;;;;;4992826;28;20480;-71
2021/09/16 07:12:37;;;;;;;7.75;2.78;;;;;;;;;;4988812;28;20052;-70
2021/09/16 07:15:07;;;;;;;5.35;2.90;;;;;;;;;;4979937;28;20058;-67
2021/09/16 07:17:35;;;;;;;7.25;2.53;;;;;;;;;;4985566;28;20527;-72
2021/09/16 07:20:05;;;;;;;7.10;2.58;;;;;;;;;;4987664;28;20046;-68
2021/09/16 07:22:34;;;;;;;5.78;2.55;;;;;;;;;;4984153;28;20057;-70
2021/09/16 07:25:04;;;;;;;5.20;3.33;;;;;;;;;;4987398;28;20105;-67
2021/09/16 07:27:33;;;;;;;6.30;3.50;;;;;;;;;;4990697;28;20506;-66
2021/09/16 07:30:03;;;;;;;5.53;3.35;;;;;;;;;;4992127;28;20050;-67
2021/09/16 07:32:33;;;;;;;7.43;3.17;;;;;;;;;;4980008;28;20485;-69
2021/09/16 07:35:02;;;;;;;5.97;3.58;;;;;;;;;;4972174;28;20054;-68
2021/09/16 07:37:31;;;;;;;8.45;3.50;;;;;;;;;;4987208;28;20042;-66
2021/09/16 07:40:01;;;;;;;5.50;3.20;;;;;;;;;;4983273;28;20054;-72
2021/09/16 07:42:31;;;;;;;5.60;3.05;;;;;;;;;;4984724;28;20561;-67
2021/09/16 07:44:59;;;;;;;6.05;3.20;;;;;;;;;;4988877;28;20093;-67
2021/09/16 07:47:28;;;;;;;8.70;3.22;;;;;;;;;;4991946;28;20047;-68
2021/09/16 07:49:58;;;;;;;9.55;4.30;;;;;;;;;;4988432;28;20051;-66
2021/09/16 07:52:27;;;;;;;8.90;3.88;;;;;;;;;;4973597;28;20050;-66
2021/09/16 07:54:56;;;;;;;9.75;4.05;;;;;;;;;;4973219;28;20499;-68
2021/09/16 07:57:24;;;;;;;5.00;3.17;;;;;;;;;;4983843;28;20042;-69
2021/09/16 07:59:54;;;;;;;9.05;3.70;;;;;;;;;;4976875;28;20065;-66
2021/09/16 08:02:23;;;;;;;7.88;4.13;;;;;;;;;;4978897;28;20058;-67
2021/09/16 08:04:54;;;;;;;6.03;3.30;;;;;;;;;;4985386;28;20046;-66
2021/09/16 08:07:32;;;;;;;5.22;3.47;;;;;;;;;;4986085;28;20050;-66
2021/09/16 08:10:02;;;;;;;7.28;3.20;;;;;;;;;;4990362;28;20076;-66
2021/09/16 08:12:38;;;;;;;8.48;4.10;;;;;;;;;;4982084;28;20499;-67
2021/09/16 08:15:09;;;;;;;5.20;3.10;;;;;;;;;;4989672;28;20049;-70
2021/09/16 08:17:44;;;;;;;6.63;4.22;;;;;;;;;;4979345;28;20058;-68
2021/09/16 08:20:14;;;;;;;4.45;2.88;;;;;;;;;;4975365;28;20054;-68
2021/09/16 08:22:50;;;;;;;6.45;3.65;;;;;;;;;;4983456;28;20060;-68
2021/09/16 08:25:19;;;;;;;6.18;3.63;;;;;;;;;;4986096;28;20105;-68
2021/09/16 08:27:54;;;;;;;8.02;4.15;;;;;;;;;;4983891;28;20057;-68
2021/09/16 08:30:25;;;;;;;6.97;3.55;;;;;;;;;;4988843;28;20053;-67
2021/09/16 08:32:54;;;;;;;6.93;3.25;;;;;;;;;;4977481;28;20090;-68
2021/09/16 08:35:24;;;;;;;8.27;3.70;;;;;;;;;;4977775;28;20050;-68
2021/09/16 08:37:53;;;;;;;7.22;3.90;;;;;;;;;;4983662;28;20133;-68
2021/09/16 08:40:23;;;;;;;6.05;3.03;;;;;;;;;;4986299;28;20048;-68
2021/09/16 08:42:52;;;;;;;7.45;3.58;;;;;;;;;;4977831;28;20742;-68
2021/09/16 08:45:22;;;;;;;9.38;3.45;;;;;;;;;;4973191;28;20051;-68
2021/09/16 08:47:53;;;;;;;7.88;3.30;;;;;;;;;;4972816;28;20046;-71
2021/09/16 08:50:23;;;;;;;7.18;2.67;;;;;;;;;;4980713;28;20109;-71
2021/09/16 08:52:53;;;;;;;6.97;3.83;;;;;;;;;;4973701;28;20054;-68
2021/09/16 08:55:23;;;;;;;5.93;3.22;;;;;;;;;;4978969;28;20065;-68
2021/09/16 08:58:00;;;;;;;6.60;3.60;;;;;;;;;;4987578;28;20086;-68
2021/09/16 09:00:30;;;;;;;7.22;3.42;;;;;;;;;;4982226;28;20074;-68
2021/09/16 09:03:14;;;;;;;9.30;3.55;;;;;;;;;;4975411;28;20089;-68
2021/09/16 09:05:43;;;;;;;7.22;3.22;;;;;;;;;;4985701;28;20066;-67
2021/09/16 09:08:12;;;;;;;6.50;3.38;;;;;;;;;;4974136;28;20127;-68
2021/09/16 09:10:42;;;;;;;5.88;3.33;;;;;;;;;;4982017;28;20046;-67
2021/09/16 09:13:12;;;;;;;7.65;3.60;;;;;;;;;;4985543;28;20404;-68
2021/09/16 09:15:42;;;;;;;7.57;3.17;;;;;;;;;;4986123;28;20046;-69
2021/09/16 09:18:14;;;;;;;7.35;3.03;;;;;;;;;;4969042;28;20059;-70
2021/09/16 09:21:00;;;;;;;6.72;3.67;;;;;;;;;;4979296;28;20506;-68
2021/09/16 09:23:30;;;;;;;5.80;3.50;;;;;;;;;;4986349;28;20128;-67
2021/09/16 09:25:59;;;;;;;7.70;3.25;;;;;;;;;;4989459;28;20085;-68
2021/09/16 09:28:29;;;;;;;5.82;3.08;;;;;;;;;;4985886;28;20571;-71
2021/09/16 09:30:59;;;;;;;6.50;3.08;;;;;;;;;;4970454;28;20074;-69
2021/09/16 09:33:31;;;;;;;4.90;2.80;;;;;;;;;;4985981;28;20039;-67
2021/09/16 09:36:11;;;;;;;6.80;3.10;;;;;;;;;;4978174;28;20050;-67
2021/09/16 09:38:50;;;;;;;6.32;2.90;;;;;;;;;;4973755;28;20538;-67
2021/09/16 09:41:26;;;;;;;6.40;2.90;;;;;;;;;;4978825;28;20048;-67
2021/09/16 09:44:08;;;;;;;5.05;3.10;;;;;;;;;;4981520;28;20089;-68
2021/09/16 09:46:42;;;;;;;7.88;3.25;;;;;;;;;;4986877;28;20054;-68
2021/09/16 09:49:13;;;;;;;6.80;3.30;;;;;;;;;;4988837;28;20053;-67
2021/09/16 09:51:43;;;;;;;5.93;3.03;;;;;;;;;;4980555;28;20053;-67
2021/09/16 09:54:23;;;;;;;6.72;3.40;;;;;;;;;;4979992;28;20085;-71
2021/09/16 09:56:58;;;;;;;5.07;3.05;;;;;;;;;;4984624;28;20055;-67
2021/09/16 09:59:29;;;;;;;5.97;3.53;;;;;;;;;;4988361;28;20046;-68
2021/09/16 10:02:04;;;;;;;5.72;3.08;;;;;;;;;;4972825;28;20134;-66
2021/09/16 10:04:34;;;;;;;4.82;2.95;;;;;;;;;;4975193;28;20310;-70
2021/09/16 10:07:02;;;;;;;5.82;3.55;;;;;;;;;;4982530;28;20458;-69
2021/09/16 10:09:31;;;;;;;5.47;2.92;;;;;;;;;;4977522;28;20047;-67
2021/09/16 10:11:59;;;;;;;8.00;3.10;;;;;;;;;;4982011;28;20053;-67
2021/09/16 10:14:28;;;;;;;9.82;3.20;;;;;;;;;;4983905;28;20046;-68
2021/09/16 10:16:56;;;;;;;3.70;2.45;;;;;;;;;;4974097;28;20053;-68
2021/09/16 10:19:25;;;;;;;4.50;2.95;;;;;;;;;;4984868;28;20054;-67
2021/09/16 10:21:55;;;;;;;6.32;2.72;;;;;;;;;;4982295;28;20101;-67
2021/09/16 10:24:25;;;;;;;5.00;3.20;;;;;;;;;;4978010;28;20050;-67
2021/09/16 10:26:53;;;;;;;4.90;2.78;;;;;;;;;;4979133;28;20474;-68
2021/09/16 10:29:36;;;;;;;7.80;2.53;;;;;;;;;;4982281;28;20407;-67
2021/09/16 10:32:23;;;;;;;6.38;2.42;;;;;;;;;;4973572;28;20043;-67
2021/09/16 10:34:56;;;;;;;4.55;2.60;;;;;;;;;;4979595;28;20043;-70
2021/09/16 10:37:35;;;;;;;8.80;3.03;;;;;;;;;;5005908;28;20050;-67
2021/09/16 10:40:19;;;;;;;7.20;3.03;;;;;;;;;;4983968;28;20316;-67
2021/09/16 10:42:49;;;;;;;6.30;3.00;;;;;;;;;;4985002;28;20585;-67
2021/09/16 10:45:26;;;;;;;3.85;2.42;;;;;;;;;;4977607;28;20058;-68
2021/09/16 10:48:13;;;;;;;8.10;3.20;;;;;;;;;;4985955;28;20054;-68
2021/09/16 10:50:43;;;;;;;4.45;2.88;;;;;;;;;;4983488;28;20053;-67
2021/09/16 10:53:31;;;;;;;6.38;2.70;;;;;;;;;;4992022;28;20089;-67
2021/09/16 10:56:01;;;;;;;3.15;2.38;;;;;;;;;;4983417;28;20047;-67
2021/09/16 10:58:30;;;;;;;5.72;3.05;;;;;;;;;;4990648;28;20133;-67
2021/09/16 11:00:58;;;;;;;7.72;3.47;;;;;;;;;;4975306;28;20054;-70
2021/09/16 11:03:28;;;;;;;5.13;2.92;;;;;;;;;;4977041;28;20054;-69
2021/09/16 11:06:00;;;;;;;6.20;3.15;;;;;;;;;;4977236;28;20049;-67
2021/09/16 11:09:02;;;;;;;8.25;3.20;;;;;;;;;;4981353;28;20055;-67
2021/09/16 11:11:54;;;;;;;5.68;2.90;;;;;;;;;;4893074;29;20047;-67
2021/09/16 11:14:28;;;;;;;6.28;2.85;;;;;;;;;;4880583;29;20588;-67
2021/09/16 11:16:57;;;;;;;6.18;3.13;;;;;;;;;;4948968;28;20077;-68
2021/09/16 11:19:26;;;;;;;5.18;2.95;;;;;;;;;;4983424;28;20046;-68
2021/09/16 11:22:02;;;;;;;4.55;3.10;;;;;;;;;;4990573;28;20050;-67
2021/09/16 11:24:32;;;;;;;6.13;2.92;;;;;;;;;;4985617;28;20092;-67
2021/09/16 11:27:01;;;;;;;6.00;3.03;;;;;;;;;;4983946;28;20054;-67
2021/09/16 11:29:40;;;;;;;5.78;3.13;;;;;;;;;;4989489;28;20042;-67
2021/09/16 11:32:10;;;;;;;6.72;2.92;;;;;;;;;;4987688;28;20124;-66
2021/09/16 11:34:39;;;;;;;5.30;3.20;;;;;;;;;;4992947;28;20054;-67
2021/09/16 11:37:18;;;;;;;7.53;3.10;;;;;;;;;;4983781;28;20086;-68
2021/09/16 11:39:56;;;;;;;4.55;2.92;;;;;;;;;;4983939;28;20061;-66
2021/09/16 11:42:25;;;;;;;6.63;2.90;;;;;;;;;;4989512;28;20054;-66
2021/09/16 11:45:03;;;;;;;6.45;3.00;;;;;;;;;;4989044;28;20126;-66
2021/09/16 11:47:37;;;;;;;7.82;2.97;;;;;;;;;;4986645;28;20062;-68
2021/09/16 11:50:07;;;;;;;5.28;3.10;;;;;;;;;;4991009;28;20046;-69
2021/09/16 11:52:38;;;;;;;8.10;3.55;;;;;;;;;;4980337;28;20077;-66
2021/09/16 11:55:10;;;;;;;6.35;3.05;;;;;;;;;;4990830;28;20050;-67
2021/09/16 11:57:55;;;;;;;7.75;3.92;;;;;;;;;;4981665;28;20134;-67
2021/09/16 12:00:26;;;;;;;5.05;3.15;;;;;;;;;;4990518;28;20058;-66
2021/09/16 12:02:56;;;;;;;6.90;3.50;;;;;;;;;;4980961;28;20403;-66
2021/09/16 12:05:38;;;;;;;5.65;3.50;;;;;;;;;;4983998;28;20406;-67
2021/09/16 12:08:08;;;;;;;6.10;3.25;;;;;;;;;;4980812;28;20577;-67
2021/09/16 12:10:37;;;;;;;7.78;3.25;;;;;;;;;;4978704;28;20076;-67
2021/09/16 12:13:06;;;;;;;7.07;3.03;;;;;;;;;;4985786;28;20396;-66
2021/09/16 12:15:37;;;;;;;6.95;3.25;;;;;;;;;;4972413;28;20079;-67
2021/09/16 12:18:06;;;;;;;5.55;3.53;;;;;;;;;;4984980;28;20109;-66
2021/09/16 12:20:36;;;;;;;6.22;2.78;;;;;;;;;;4992097;28;20498;-66
2021/09/16 12:23:05;;;;;;;8.05;3.35;;;;;;;;;;4978381;28;20055;-66
2021/09/16 12:25:48;;;;;;;8.80;3.35;;;;;;;;;;4981842;28;20083;-65
2021/09/16 12:28:17;;;;;;;4.88;2.78;;;;;;;;;;4979337;28;20150;-66
2021/09/16 12:30:47;;;;;;;5.18;2.78;;;;;;;;;;4990213;28;20050;-66
2021/09/16 12:33:36;;;;;;;7.32;3.10;;;;;;;;;;4977497;28;20117;-67
2021/09/16 12:36:25;;;;;;;5.38;2.90;;;;;;;;;;4985412;28;20070;-64
2021/09/16 12:38:58;;;;;;;5.32;2.67;;;;;;;;;;4977916;28;20057;-65
2021/09/16 12:41:28;;;;;;;7.15;2.65;;;;;;;;;;4982127;28;20050;-67
2021/09/16 12:44:00;;;;;;;4.28;2.45;;;;;;;;;;4989383;28;20057;-68
2021/09/16 12:46:39;;;;;;;5.03;2.50;;;;;;;;;;4982841;28;20051;-69
2021/09/16 12:49:08;;;;;;;4.72;2.28;;;;;;;;;;4984140;28;20061;-64
2021/09/16 12:51:36;;;;;;;3.80;2.35;;;;;;;;;;4976867;28;20077;-64
2021/09/16 12:54:05;;;;;;;3.50;1.88;;;;;;;;;;4980622;28;20468;-67
2021/09/16 12:56:35;;;;;;;3.47;2.15;;;;;;;;;;4977085;28;20046;-65
2021/09/16 12:59:17;;;;;;;4.95;2.28;;;;;;;;;;4983440;28;20050;-70
2021/09/16 13:01:47;;;;;;;4.13;1.92;;;;;;;;;;4984137;28;20051;-66
2021/09/16 13:04:16;;;;;;;5.40;2.30;;;;;;;;;;4985921;28;20184;-69
2021/09/16 13:06:45;;;;;;;6.60;2.08;;;;;;;;;;4976970;28;20097;-68
2021/09/16 13:09:28;;;;;;;5.68;2.38;;;;;;;;;;4986619;28;20085;-68
2021/09/16 13:12:11;;;;;;;10.35;2.53;;;;;;;;;;4987016;28;20043;-66
2021/09/16 13:14:40;;;;;;;4.60;2.53;;;;;;;;;;4984422;28;20141;-69
2021/09/16 13:17:10;;;;;;;3.33;2.10;;;;;;;;;;4987543;28;20054;-68
2021/09/16 13:19:39;;;;;;;3.08;2.42;;;;;;;;;;4979709;28;20149;-67
2021/09/16 13:22:07;;;;;;;3.83;2.40;;;;;;;;;;4986483;28;20086;-66
2021/09/16 13:24:36;;;;;;;2.90;2.20;;;;;;;;;;4979595;28;20082;-66
2021/09/16 13:27:05;;;;;;;5.32;2.22;;;;;;;;;;4984059;28;20519;-66
2021/09/16 13:29:33;;;;;;;5.32;1.67;;;;;;;;;;4983172;28;20054;-70
2021/09/16 13:32:02;;;;;;;3.40;1.60;;;;;;;;;;4975275;28;20117;-67
2021/09/16 13:34:32;;;;;;;4.35;1.45;;;;;;;;;;4981768;28;20506;-68
2021/09/16 13:37:00;;;;;;;4.20;1.50;;;;;;;;;;4974750;28;20057;-68
2021/09/16 13:39:29;;;;;;;2.28;1.23;;;;;;;;;;4987194;28;20451;-68
2021/09/16 13:41:58;;;;;;;2.67;1.00;;;;;;;;;;4983037;28;20085;-68
2021/09/16 13:44:27;;;;;;;3.60;1.40;;;;;;;;;;4979084;28;20053;-67
2021/09/16 13:46:56;;;;;;;2.03;1.35;;;;;;;;;;4981909;28;20070;-67
2021/09/16 13:49:24;;;;;;;2.25;1.30;;;;;;;;;;4976113;28;20096;-69
2021/09/16 13:51:54;;;;;;;4.13;1.50;;;;;;;;;;4985197;28;20494;-68
2021/09/16 13:54:22;;;;;;;2.50;1.33;;;;;;;;;;4981207;28;20410;-67
2021/09/16 13:56:51;;;;;;;2.83;1.42;;;;;;;;;;4980989;28;20058;-72
2021/09/16 13:59:20;;;;;;;5.15;1.50;;;;;;;;;;4973775;28;20042;-69
2021/09/16 14:01:49;;;;;;;3.17;1.30;;;;;;;;;;4982300;28;20088;-68
2021/09/16 14:04:18;;;;;;;3.22;1.48;;;;;;;;;;4982802;28;20065;-67
2021/09/16 14:06:46;;;;;;;3.17;1.33;;;;;;;;;;4983334;28;20057;-69
2021/09/16 14:09:17;;;;;;;2.78;1.38;;;;;;;;;;4982447;28;20089;-67
2021/09/16 14:11:46;;;;;;;2.22;1.15;;;;;;;;;;4969453;28;20043;-67
2021/09/16 14:14:15;;;;;;;2.83;1.40;;;;;;;;;;4988771;28;20078;-69
2021/09/16 14:16:44;;;;;;;3.92;2.05;;;;;;;;;;4978690;28;20088;-70
2021/09/16 14:19:13;;;;;;;4.82;1.85;;;;;;;;;;4985179;28;20174;-68
2021/09/16 14:21:42;;;;;;;5.50;1.95;;;;;;;;;;4988152;28;20509;-67
2021/09/16 14:24:10;;;;;;;4.32;2.03;;;;;;;;;;4984572;28;20046;-67
2021/09/16 14:26:41;;;;;;;3.33;1.45;;;;;;;;;;4981416;28;20058;-68
2021/09/16 14:29:09;;;;;;;6.20;2.20;;;;;;;;;;4979492;28;20062;-67
2021/09/16 14:31:39;;;;;;;5.93;1.63;;;;;;;;;;4986177;28;20078;-67
2021/09/16 14:34:08;;;;;;;4.28;1.80;;;;;;;;;;4990830;28;20054;-68
2021/09/16 14:36:42;;;;;;;3.45;1.70;;;;;;;;;;4979645;28;20150;-68
2021/09/16 14:39:11;;;;;;;4.07;1.50;;;;;;;;;;4982344;28;20553;-67
2021/09/16 14:41:42;;;;;;;3.90;1.95;;;;;;;;;;4976364;28;20070;-69
2021/09/16 14:44:10;;;;;;;4.72;1.83;;;;;;;;;;4982726;28;20157;-69
2021/09/16 14:46:39;;;;;;;3.70;1.45;;;;;;;;;;4984208;28;20085;-68
2021/09/16 14:49:09;;;;;;;2.63;1.48;;;;;;;;;;4983110;28;20050;-69
2021/09/16 14:51:38;;;;;;;3.58;1.30;;;;;;;;;;4980892;28;20046;-67
2021/09/16 14:54:07;;;;;;;2.78;1.27;;;;;;;;;;4981591;28;20057;-69
2021/09/16 14:56:36;;;;;;;3.42;1.15;;;;;;;;;;4981005;28;20125;-69
2021/09/16 14:59:06;;;;;;;1.77;1.13;;;;;;;;;;4980173;28;20058;-68
2021/09/16 15:01:36;;;;;;;1.73;1.20;;;;;;;;;;4977045;28;20403;-68